createdAt,value
2017-05-12T00:01:06.412Z,10.60
2017-05-12T00:03:35.008Z,10.60
2017-05-12T00:06:03.632Z,10.50
2017-05-12T00:08:32.202Z,10.40
2017-05-12T00:11:00.783Z,10.40
2017-05-12T00:13:29.412Z,10.40
2017-05-12T00:15:57.958Z,10.30
2017-05-12T00:18:26.525Z,10.30
2017-05-12T00:20:55.142Z,10.30
2017-05-12T00:23:23.700Z,10.20
2017-05-12T00:25:52.257Z,10.10
2017-05-12T00:28:20.862Z,10.20
2017-05-12T00:30:49.437Z,10.00
2017-05-12T00:33:18.001Z,10.10
2017-05-12T00:35:46.617Z,10.00
2017-05-12T00:38:15.177Z,10.10
2017-05-12T00:40:43.744Z,10.00
2017-05-12T00:43:12.361Z,10.00
2017-05-12T00:45:40.924Z,9.90
2017-05-12T00:48:09.487Z,9.80
2017-05-12T00:50:38.106Z,9.80
2017-05-12T00:53:06.648Z,9.80
2017-05-12T00:55:35.216Z,9.70
2017-05-12T00:58:03.827Z,9.70
2017-05-12T01:00:32.398Z,9.60
2017-05-12T01:03:01.011Z,9.60
2017-05-12T01:05:29.639Z,9.60
2017-05-12T01:07:58.211Z,9.60
2017-05-12T01:10:26.787Z,9.50
2017-05-12T01:12:55.390Z,9.50
2017-05-12T01:15:23.977Z,9.50
2017-05-12T01:17:52.524Z,9.50
2017-05-12T01:20:21.141Z,9.50
2017-05-12T01:22:49.686Z,9.40
2017-05-12T01:25:18.273Z,9.40
2017-05-12T01:27:46.887Z,9.40
2017-05-12T01:30:15.456Z,9.40
2017-05-12T01:32:44.003Z,9.40
2017-05-12T01:35:12.655Z,9.30
2017-05-12T01:37:41.221Z,9.30
2017-05-12T01:40:09.787Z,9.20
2017-05-12T01:42:38.424Z,9.20
2017-05-12T01:45:06.989Z,9.30
2017-05-12T01:47:35.576Z,9.20
2017-05-12T01:50:04.261Z,9.20
2017-05-12T01:52:32.860Z,9.20
2017-05-12T01:55:01.400Z,9.20
2017-05-12T01:57:30.019Z,9.20
2017-05-12T01:59:58.588Z,9.30
2017-05-12T02:02:27.174Z,9.30
2017-05-12T02:04:55.810Z,9.30
2017-05-12T02:07:24.369Z,9.30
2017-05-12T02:09:52.914Z,9.20
2017-05-12T02:12:21.519Z,9.30
2017-05-12T02:14:50.099Z,9.30
2017-05-12T02:17:18.661Z,9.20
2017-05-12T02:19:47.282Z,9.20
2017-05-12T02:22:15.853Z,9.10
2017-05-12T02:24:44.410Z,9.10
2017-05-12T02:27:13.045Z,9.10
2017-05-12T02:29:41.630Z,9.10
2017-05-12T02:32:10.255Z,9.10
2017-05-12T02:34:38.862Z,9.20
2017-05-12T02:37:07.444Z,9.20
2017-05-12T02:39:35.998Z,9.10
2017-05-12T02:42:04.597Z,9.10
2017-05-12T02:44:33.156Z,9.00
2017-05-12T02:47:01.725Z,9.10
2017-05-12T02:49:30.325Z,9.10
2017-05-12T02:51:58.901Z,9.00
2017-05-12T02:54:27.486Z,9.00
2017-05-12T02:56:56.093Z,9.00
2017-05-12T02:59:24.649Z,8.90
2017-05-12T03:01:53.214Z,8.90
2017-05-12T03:04:21.839Z,8.90
2017-05-12T03:06:50.449Z,8.70
2017-05-12T03:09:19.007Z,8.70
2017-05-12T03:11:47.648Z,8.70
2017-05-12T03:14:17.034Z,8.70
2017-05-12T03:16:45.626Z,8.70
2017-05-12T03:19:14.244Z,8.70
2017-05-12T03:21:42.791Z,8.60
2017-05-12T03:24:11.368Z,8.60
2017-05-12T03:26:39.980Z,8.60
2017-05-12T03:29:08.533Z,8.60
2017-05-12T03:31:37.107Z,8.60
2017-05-12T03:34:05.719Z,8.70
2017-05-12T03:36:34.286Z,8.70
2017-05-12T03:39:02.865Z,9.10
2017-05-12T03:41:31.482Z,9.70
2017-05-12T03:44:00.070Z,9.90
2017-05-12T03:46:28.636Z,10.00
2017-05-12T03:48:57.245Z,10.10
2017-05-12T03:51:25.947Z,10.10
2017-05-12T03:53:54.526Z,10.10
2017-05-12T03:56:23.129Z,10.20
2017-05-12T03:58:51.699Z,10.80
2017-05-12T04:01:20.254Z,11.80
2017-05-12T04:03:48.844Z,12.50
2017-05-12T04:06:17.401Z,12.50
2017-05-12T04:08:45.941Z,12.70
2017-05-12T04:11:14.533Z,13.20
2017-05-12T04:13:43.081Z,13.40
2017-05-12T04:16:11.619Z,13.60
2017-05-12T04:18:40.215Z,13.50
2017-05-12T04:21:08.768Z,13.90
2017-05-12T04:23:37.318Z,14.60
2017-05-12T04:26:05.913Z,15.30
2017-05-12T04:28:34.458Z,15.40
2017-05-12T04:31:03.019Z,15.80
2017-05-12T04:33:31.637Z,15.80
2017-05-12T04:36:00.181Z,16.00
2017-05-12T04:38:28.734Z,15.90
2017-05-12T04:40:57.326Z,16.00
2017-05-12T04:43:25.864Z,15.70
2017-05-12T04:45:54.397Z,15.80
2017-05-12T04:48:22.993Z,16.10
2017-05-12T04:50:51.550Z,16.00
2017-05-12T04:53:20.094Z,16.10
2017-05-12T04:55:48.698Z,16.00
2017-05-12T04:58:17.238Z,16.10
2017-05-12T05:00:45.769Z,16.10
2017-05-12T05:03:14.477Z,16.00
2017-05-12T05:05:43.017Z,16.20
2017-05-12T05:08:11.552Z,16.60
2017-05-12T05:10:40.178Z,16.60
2017-05-12T05:13:08.779Z,17.10
2017-05-12T05:15:37.359Z,17.30
2017-05-12T05:18:06.689Z,17.40
2017-05-12T05:20:35.237Z,18.20
2017-05-12T05:23:03.777Z,19.20
2017-05-12T05:25:32.391Z,19.40
2017-05-12T05:28:00.920Z,19.70
2017-05-12T05:30:29.465Z,21.10
2017-05-12T05:32:58.062Z,21.60
2017-05-12T05:35:26.607Z,22.00
2017-05-12T05:37:55.158Z,22.50
2017-05-12T05:40:23.757Z,23.40
2017-05-12T05:42:52.303Z,24.40
2017-05-12T05:45:20.854Z,24.80
2017-05-12T05:47:49.448Z,24.40
2017-05-12T05:50:18.020Z,24.20
2017-05-12T05:52:46.555Z,25.00
2017-05-12T05:55:15.146Z,24.70
2017-05-12T05:57:43.694Z,25.30
2017-05-12T06:00:12.239Z,25.10
2017-05-12T06:02:40.825Z,25.70
2017-05-12T06:05:09.370Z,25.60
2017-05-12T06:07:37.913Z,25.50
2017-05-12T06:10:06.573Z,26.00
2017-05-12T06:12:35.113Z,25.80
2017-05-12T06:15:03.701Z,26.80
2017-05-12T06:17:32.356Z,27.90
2017-05-12T06:20:00.900Z,27.40
2017-05-12T06:22:29.442Z,28.00
2017-05-12T06:24:58.040Z,28.70
2017-05-12T06:27:26.573Z,28.60
2017-05-12T06:29:55.125Z,29.10
2017-05-12T06:32:23.710Z,29.40
2017-05-12T06:34:52.249Z,29.00
2017-05-12T06:37:20.791Z,29.30
2017-05-12T06:39:49.403Z,29.50
2017-05-12T06:42:17.965Z,29.40
2017-05-12T06:44:46.504Z,28.70
2017-05-12T06:47:15.099Z,29.30
2017-05-12T06:49:43.648Z,29.80
2017-05-12T06:52:12.208Z,29.50
2017-05-12T06:54:40.802Z,29.60
2017-05-12T06:57:09.349Z,30.70
2017-05-12T06:59:37.887Z,31.20
2017-05-12T07:02:06.471Z,30.40
2017-05-12T07:04:35.007Z,30.60
2017-05-12T07:07:03.554Z,30.60
2017-05-12T07:09:32.141Z,30.90
2017-05-12T07:12:00.691Z,31.70
2017-05-12T07:14:29.232Z,30.50
2017-05-12T07:16:57.836Z,30.70
2017-05-12T07:19:26.373Z,31.30
2017-05-12T07:21:54.914Z,31.10
2017-05-12T07:24:23.516Z,31.80
2017-05-12T07:26:52.052Z,30.90
2017-05-12T07:29:20.591Z,30.60
2017-05-12T07:31:49.177Z,30.50
2017-05-12T07:34:17.717Z,32.20
2017-05-12T07:36:46.260Z,32.70
2017-05-12T07:39:14.849Z,33.50
2017-05-12T07:41:43.395Z,34.00
2017-05-12T07:44:11.960Z,33.10
2017-05-12T07:46:40.548Z,32.80
2017-05-12T07:49:09.088Z,32.70
2017-05-12T07:51:37.633Z,32.60
2017-05-12T07:54:06.240Z,33.00
2017-05-12T07:56:34.785Z,34.50
2017-05-12T07:59:03.342Z,33.40
2017-05-12T08:01:31.944Z,32.90
2017-05-12T08:04:00.505Z,32.80
2017-05-12T08:06:29.057Z,33.70
2017-05-12T08:08:57.653Z,33.30
2017-05-12T08:11:26.213Z,34.00
2017-05-12T08:13:54.756Z,34.10
2017-05-12T08:16:23.362Z,33.90
2017-05-12T08:18:51.889Z,33.90
2017-05-12T08:21:20.424Z,32.70
2017-05-12T08:23:49.033Z,33.10
2017-05-12T08:26:17.576Z,34.90
2017-05-12T08:28:46.128Z,35.10
2017-05-12T08:31:14.724Z,33.80
2017-05-12T08:33:43.262Z,32.80
2017-05-12T08:36:11.797Z,31.90
2017-05-12T08:38:40.384Z,31.80
2017-05-12T08:41:21.747Z,32.40
2017-05-12T08:43:50.332Z,31.80
2017-05-12T08:46:18.859Z,32.30
2017-05-12T08:48:47.399Z,32.90
2017-05-12T08:51:16.363Z,33.30
2017-05-12T08:53:44.940Z,33.80
2017-05-12T08:56:13.480Z,32.50
2017-05-12T08:58:42.081Z,32.40
2017-05-12T09:01:10.625Z,32.60
2017-05-12T09:03:39.193Z,30.70
2017-05-12T09:06:07.788Z,29.60
2017-05-12T09:08:36.350Z,30.40
2017-05-12T09:11:04.894Z,31.20
2017-05-12T09:13:33.482Z,32.10
2017-05-12T09:16:02.055Z,32.40
2017-05-12T09:18:30.604Z,32.10
2017-05-12T09:20:59.194Z,31.80
2017-05-12T09:23:27.752Z,31.10
2017-05-12T09:25:56.300Z,29.70
2017-05-12T09:28:24.887Z,28.10
2017-05-12T09:30:53.427Z,27.30
2017-05-12T09:33:22.004Z,27.10
2017-05-12T09:35:50.597Z,26.50
2017-05-12T09:38:19.144Z,26.30
2017-05-12T09:40:47.691Z,26.50
2017-05-12T09:43:16.285Z,25.90
2017-05-12T09:45:44.833Z,24.90
2017-05-12T09:48:13.387Z,24.60
2017-05-12T09:50:41.996Z,24.20
2017-05-12T09:53:10.532Z,23.70
2017-05-12T09:55:39.072Z,23.30
2017-05-12T09:58:07.659Z,23.00
2017-05-12T10:00:36.217Z,22.90
2017-05-12T10:03:04.766Z,23.10
2017-05-12T10:08:31.853Z,22.60
2017-05-12T10:11:00.387Z,22.40
2017-05-12T10:13:28.934Z,22.60
2017-05-12T10:15:57.527Z,22.50
2017-05-12T10:18:26.057Z,22.80
2017-05-12T10:20:54.596Z,23.20
2017-05-12T10:23:23.175Z,23.70
2017-05-12T10:25:51.724Z,23.90
2017-05-12T10:28:20.259Z,23.50
2017-05-12T10:30:48.868Z,23.40
2017-05-12T10:33:17.402Z,23.60
2017-05-12T10:35:45.952Z,23.80
2017-05-12T10:38:14.543Z,23.50
2017-05-12T10:40:43.083Z,23.40
2017-05-12T10:43:11.618Z,23.60
2017-05-12T10:45:40.204Z,23.90
2017-05-12T10:48:08.738Z,23.80
2017-05-12T10:50:37.299Z,23.80
2017-05-12T10:53:05.892Z,23.50
2017-05-12T10:55:34.438Z,23.50
2017-05-12T10:58:02.983Z,23.40
2017-05-12T11:00:31.580Z,23.00
2017-05-12T11:03:00.108Z,23.20
2017-05-12T11:05:28.649Z,23.20
2017-05-12T11:07:57.303Z,23.20
2017-05-12T11:10:25.849Z,23.60
2017-05-12T11:12:54.385Z,24.20
2017-05-12T11:15:23.158Z,24.20
2017-05-12T11:17:51.691Z,24.20
2017-05-12T11:20:20.234Z,24.50
2017-05-12T11:22:48.815Z,24.50
2017-05-12T11:25:17.366Z,24.40
2017-05-12T11:27:45.895Z,24.10
2017-05-12T11:30:14.481Z,24.20
2017-05-12T11:32:43.027Z,23.90
2017-05-12T11:35:11.568Z,24.10
2017-05-12T11:37:40.157Z,24.40
2017-05-12T11:40:08.690Z,24.50
2017-05-12T11:42:37.237Z,24.50
2017-05-12T11:45:05.823Z,24.10
2017-05-12T11:47:34.362Z,23.90
2017-05-12T11:50:02.908Z,23.80
2017-05-12T11:52:31.499Z,23.70
2017-05-12T11:55:00.057Z,23.50
2017-05-12T11:57:28.598Z,23.60
2017-05-12T11:59:57.182Z,23.80
2017-05-12T12:02:25.711Z,24.10
2017-05-12T12:04:54.248Z,24.30
2017-05-12T12:07:22.831Z,24.30
2017-05-12T12:09:51.372Z,24.30
2017-05-12T12:12:19.943Z,24.60
2017-05-12T12:14:48.536Z,24.90
2017-05-12T12:17:17.076Z,24.90
2017-05-12T12:19:45.607Z,25.10
2017-05-12T12:22:14.233Z,24.60
2017-05-12T12:24:42.764Z,23.70
2017-05-12T12:27:11.302Z,23.40
2017-05-12T12:29:39.892Z,23.20
2017-05-12T12:32:08.442Z,23.20
2017-05-12T12:34:37.000Z,23.70
2017-05-12T12:37:05.589Z,24.00
2017-05-12T12:39:34.125Z,24.50
2017-05-12T12:42:02.668Z,25.00
2017-05-12T12:44:31.256Z,24.80
2017-05-12T12:46:59.794Z,24.10
2017-05-12T12:49:28.335Z,23.70
2017-05-12T12:51:56.924Z,23.30
2017-05-12T12:54:25.451Z,23.10
2017-05-12T12:56:53.976Z,22.80
2017-05-12T12:59:22.556Z,22.90
2017-05-12T13:01:51.222Z,23.00
2017-05-12T13:04:19.753Z,23.10
2017-05-12T13:06:48.377Z,23.20
2017-05-12T13:09:16.912Z,23.40
2017-05-12T13:11:45.445Z,23.60
2017-05-12T13:14:14.028Z,24.20
2017-05-12T13:16:42.560Z,24.60
2017-05-12T13:19:11.087Z,24.80
2017-05-12T13:21:39.678Z,24.70
2017-05-12T13:24:08.248Z,24.50
2017-05-12T13:26:36.785Z,24.60
2017-05-12T13:29:05.401Z,24.90
2017-05-12T13:31:33.930Z,25.20
2017-05-12T13:34:02.449Z,25.00
2017-05-12T13:36:31.033Z,24.70
2017-05-12T13:38:59.555Z,24.40
2017-05-12T13:41:28.098Z,24.10
2017-05-12T13:43:56.682Z,24.10
2017-05-12T13:46:25.225Z,24.40
2017-05-12T13:48:53.760Z,24.70
2017-05-12T13:51:22.348Z,24.60
2017-05-12T13:53:50.935Z,24.60
2017-05-12T13:56:19.517Z,24.50
2017-05-12T13:58:48.103Z,24.20
2017-05-12T14:01:16.680Z,23.80
2017-05-12T14:03:45.216Z,23.80
2017-05-12T14:06:13.804Z,23.80
2017-05-12T14:08:42.339Z,23.80
2017-05-12T14:11:10.880Z,23.80
2017-05-12T14:13:39.463Z,23.80
2017-05-12T14:16:07.997Z,23.70
2017-05-12T14:18:36.528Z,23.80
2017-05-12T14:21:05.123Z,23.90
2017-05-12T14:23:33.671Z,24.10
2017-05-12T14:26:02.212Z,24.10
2017-05-12T14:28:30.805Z,23.50
2017-05-12T14:30:59.343Z,23.20
2017-05-12T14:33:27.881Z,23.20
2017-05-12T14:35:56.457Z,23.20
2017-05-12T14:38:24.980Z,23.30
2017-05-12T14:40:53.585Z,23.50
2017-05-12T14:43:22.164Z,23.50
2017-05-12T14:45:50.723Z,23.70
2017-05-12T14:48:19.251Z,23.60
2017-05-12T14:50:47.833Z,23.50
2017-05-12T14:53:16.364Z,23.50
2017-05-12T14:55:44.923Z,23.50
2017-05-12T14:58:13.511Z,23.60
2017-05-12T15:00:42.040Z,23.70
2017-05-12T15:03:10.572Z,23.70
2017-05-12T15:05:39.165Z,23.70
2017-05-12T15:08:07.695Z,23.70
2017-05-12T15:10:36.234Z,23.80
2017-05-12T15:13:04.822Z,23.90
2017-05-12T15:15:33.361Z,23.80
2017-05-12T15:18:01.941Z,23.50
2017-05-12T15:20:30.538Z,23.30
2017-05-12T15:22:59.093Z,23.40
2017-05-12T15:25:27.654Z,23.50
2017-05-12T15:27:56.277Z,23.70
2017-05-12T15:30:24.813Z,23.80
2017-05-12T15:32:53.360Z,23.90
2017-05-12T15:35:21.967Z,24.00
2017-05-12T15:37:50.558Z,24.10
2017-05-12T15:40:19.138Z,23.90
2017-05-12T15:42:47.716Z,23.60
2017-05-12T15:45:16.257Z,23.30
2017-05-12T15:47:45.206Z,23.10
2017-05-12T15:50:13.835Z,23.20
2017-05-12T15:52:42.427Z,23.20
2017-05-12T15:55:10.978Z,23.20
2017-05-12T15:57:39.605Z,23.20
2017-05-12T16:00:08.176Z,23.20
2017-05-12T16:02:36.755Z,23.00
2017-05-12T16:05:05.366Z,23.00
2017-05-12T16:07:33.975Z,22.80
2017-05-12T16:10:02.521Z,22.70
2017-05-12T16:12:31.226Z,22.50
2017-05-12T16:14:59.801Z,22.20
2017-05-12T16:17:28.360Z,22.00
2017-05-12T16:19:56.975Z,21.90
2017-05-12T16:22:25.572Z,21.80
2017-05-12T16:24:54.229Z,21.80
2017-05-12T16:27:22.867Z,21.80
2017-05-12T16:29:51.402Z,21.70
2017-05-12T16:32:20.155Z,21.70
2017-05-12T16:34:49.307Z,21.70
2017-05-12T16:37:17.876Z,21.70
2017-05-12T16:39:46.510Z,21.70
2017-05-12T16:42:15.671Z,21.70
2017-05-12T16:44:44.381Z,21.70
2017-05-12T16:47:12.973Z,21.70
2017-05-12T16:49:41.617Z,21.70
2017-05-12T16:52:10.189Z,21.70
2017-05-12T16:54:38.739Z,21.70
2017-05-12T16:57:07.363Z,21.70
2017-05-12T16:59:35.948Z,21.70
2017-05-12T17:02:04.643Z,21.70
2017-05-12T17:04:33.277Z,21.60
2017-05-12T17:07:01.826Z,21.60
2017-05-12T17:09:30.517Z,21.50
2017-05-12T17:11:59.166Z,21.30
2017-05-12T17:14:27.756Z,21.10
2017-05-12T17:16:56.307Z,21.00
2017-05-12T17:19:24.958Z,20.90
2017-05-12T17:21:53.602Z,20.90
2017-05-12T17:24:22.283Z,20.90
2017-05-12T17:26:50.862Z,20.70
2017-05-12T17:29:19.416Z,20.60
2017-05-12T17:31:47.994Z,20.50
2017-05-12T17:34:16.604Z,20.50
2017-05-12T17:36:45.170Z,20.40
2017-05-12T17:39:13.743Z,20.30
2017-05-12T17:41:42.350Z,20.20
2017-05-12T17:44:10.916Z,20.10
2017-05-12T17:46:39.479Z,20.10
2017-05-12T17:49:08.089Z,20.00
2017-05-12T17:51:36.658Z,19.90
2017-05-12T17:54:05.218Z,19.80
2017-05-12T17:56:33.872Z,19.70
2017-05-12T17:59:02.412Z,19.70
2017-05-12T18:01:30.962Z,19.60
2017-05-12T18:03:59.568Z,19.50
2017-05-12T18:06:28.183Z,19.40
2017-05-12T18:08:56.733Z,19.30
2017-05-12T18:11:25.344Z,19.20
2017-05-12T18:13:56.125Z,19.10
2017-05-12T18:16:24.688Z,19.10
2017-05-12T18:18:53.296Z,19.00
2017-05-12T18:21:21.853Z,18.90
2017-05-12T18:23:50.410Z,18.80
2017-05-12T18:26:19.033Z,18.80
2017-05-12T18:28:47.578Z,18.70
2017-05-12T18:31:16.267Z,18.60
2017-05-12T18:33:44.871Z,18.60
2017-05-12T18:36:13.481Z,18.50
2017-05-12T18:38:42.046Z,18.50
2017-05-12T18:41:10.997Z,18.40
2017-05-12T18:43:39.619Z,18.50
2017-05-12T18:46:08.290Z,18.40
2017-05-12T18:48:36.942Z,18.40
2017-05-12T18:51:05.541Z,18.40
2017-05-12T18:53:34.101Z,18.30
2017-05-12T18:56:02.696Z,18.30
2017-05-12T18:58:31.308Z,18.30
2017-05-12T19:00:59.896Z,18.20
2017-05-12T19:03:28.498Z,18.30
2017-05-12T19:05:57.053Z,18.30
2017-05-12T19:08:25.641Z,18.20
2017-05-12T19:10:54.331Z,18.20
2017-05-12T19:13:22.909Z,18.10
2017-05-12T19:15:51.476Z,18.00
2017-05-12T19:18:20.085Z,18.10
2017-05-12T19:20:48.629Z,18.00
2017-05-12T19:23:17.206Z,18.00
2017-05-12T19:25:45.824Z,17.90
2017-05-12T19:28:14.423Z,17.90
2017-05-12T19:30:43.274Z,17.90
2017-05-12T19:33:11.910Z,17.80
2017-05-12T19:35:40.453Z,17.80
2017-05-12T19:38:09.168Z,17.70
2017-05-12T19:40:37.965Z,17.80
2017-05-12T19:43:06.539Z,17.70
2017-05-12T19:45:35.126Z,17.60
2017-05-12T19:48:03.727Z,17.60
2017-05-12T19:50:32.411Z,17.50
2017-05-12T19:53:00.968Z,17.50
2017-05-12T19:55:29.553Z,17.50
2017-05-12T19:57:58.094Z,17.50
2017-05-12T20:00:26.644Z,17.30
2017-05-12T20:02:55.303Z,17.30
2017-05-12T20:05:23.857Z,17.30
2017-05-12T20:07:52.407Z,17.20
2017-05-12T20:10:21.014Z,17.20
2017-05-12T20:12:49.665Z,17.10
2017-05-12T20:15:18.428Z,17.10
2017-05-12T20:17:47.019Z,17.00
2017-05-12T20:20:15.578Z,17.00
2017-05-12T20:22:44.146Z,16.90
2017-05-12T20:25:12.761Z,16.90
2017-05-12T20:27:41.311Z,16.80
2017-05-12T20:30:09.888Z,16.70
2017-05-12T20:32:38.485Z,16.70
2017-05-12T20:35:07.080Z,16.70
2017-05-12T20:37:35.646Z,16.70
2017-05-12T20:40:04.260Z,16.70
2017-05-12T20:42:32.824Z,16.80
2017-05-12T20:45:01.389Z,16.70
2017-05-12T20:47:30.005Z,16.70
2017-05-12T20:49:58.565Z,16.70
2017-05-12T20:52:27.100Z,16.60
2017-05-12T20:54:55.700Z,16.70
2017-05-12T20:57:24.254Z,16.60
2017-05-12T20:59:52.810Z,16.60
2017-05-12T21:02:21.417Z,16.60
2017-05-12T21:04:49.961Z,16.60
2017-05-12T21:07:18.516Z,16.50
2017-05-12T21:09:47.104Z,16.40
2017-05-12T21:12:15.660Z,16.40
2017-05-12T21:14:44.234Z,16.40
2017-05-12T21:17:12.873Z,16.40
2017-05-12T21:19:41.419Z,16.40
2017-05-12T21:22:09.974Z,16.40
2017-05-12T21:24:38.638Z,16.30
2017-05-12T21:27:07.207Z,16.30
2017-05-12T21:29:35.747Z,16.30
2017-05-12T21:32:04.363Z,16.20
2017-05-12T21:34:32.919Z,16.20
2017-05-12T21:37:01.510Z,16.20
2017-05-12T21:39:30.130Z,16.20
2017-05-12T21:41:58.681Z,16.20
2017-05-12T21:44:27.298Z,16.10
2017-05-12T21:46:55.910Z,16.20
2017-05-12T21:49:24.650Z,16.20
2017-05-12T21:51:53.200Z,16.20
2017-05-12T21:54:22.246Z,16.10
2017-05-12T21:56:50.799Z,16.00
2017-05-12T21:59:19.342Z,16.00
2017-05-12T22:01:47.949Z,16.00
2017-05-12T22:04:16.496Z,15.90
2017-05-12T22:06:45.050Z,16.00
2017-05-12T22:09:13.649Z,15.90
2017-05-12T22:11:42.206Z,15.90
2017-05-12T22:14:10.778Z,15.70
2017-05-12T22:16:39.388Z,15.70
2017-05-12T22:19:07.946Z,15.60
2017-05-12T22:21:36.497Z,15.60
2017-05-12T22:24:05.096Z,15.60
2017-05-12T22:26:33.645Z,15.50
2017-05-12T22:29:02.187Z,15.50
2017-05-12T22:31:30.774Z,15.40
2017-05-12T22:33:59.328Z,15.40
2017-05-12T22:36:28.061Z,15.40
2017-05-12T22:38:56.654Z,15.40
2017-05-12T22:41:25.202Z,15.40
2017-05-12T22:43:53.757Z,15.40
2017-05-12T22:46:22.381Z,15.30
2017-05-12T22:48:50.973Z,15.30
2017-05-12T22:51:19.537Z,15.20
2017-05-12T22:53:53.948Z,15.10
2017-05-12T22:56:22.508Z,15.00
2017-05-12T22:58:51.054Z,15.00
2017-05-12T23:01:19.654Z,15.00
2017-05-12T23:03:48.217Z,14.90
2017-05-12T23:06:16.794Z,15.00
2017-05-12T23:08:45.416Z,14.90
2017-05-12T23:11:13.981Z,14.90
2017-05-12T23:13:42.542Z,14.80
2017-05-12T23:16:11.144Z,14.80
2017-05-12T23:18:39.696Z,14.80
2017-05-12T23:21:08.255Z,14.80
2017-05-12T23:23:36.865Z,14.80
2017-05-12T23:26:05.411Z,14.80
2017-05-12T23:28:33.988Z,14.70
2017-05-12T23:31:02.603Z,14.70
2017-05-12T23:33:31.161Z,14.70
2017-05-12T23:35:59.711Z,14.70
2017-05-12T23:38:28.302Z,14.70
2017-05-12T23:40:56.846Z,14.60
2017-05-12T23:43:25.391Z,14.70
2017-05-12T23:45:54.035Z,14.70
2017-05-12T23:48:22.588Z,14.60
2017-05-12T23:50:51.140Z,14.60
2017-05-12T23:53:19.741Z,14.60
2017-05-12T23:55:48.301Z,14.50
2017-05-12T23:58:16.914Z,14.40
